createdAt,value
2022-11-17T00:02:21.517Z,4.40
2022-11-17T00:07:26.028Z,5.00
2022-11-17T00:12:46.654Z,4.73
2022-11-17T00:18:09.721Z,4.30
2022-11-17T00:23:13.997Z,4.60
2022-11-17T00:28:16.899Z,5.07
2022-11-17T00:33:37.605Z,5.60
2022-11-17T00:38:41.985Z,5.40
2022-11-17T00:43:44.905Z,5.00
2022-11-17T00:48:48.319Z,5.37
2022-11-17T00:53:53.254Z,5.73
2022-11-17T00:58:56.791Z,5.40
2022-11-17T01:04:04.109Z,5.50
2022-11-17T01:09:14.167Z,5.20
2022-11-17T01:14:19.959Z,5.67
2022-11-17T01:19:24.598Z,4.90
2022-11-17T01:24:29.131Z,4.97
2022-11-17T01:29:32.266Z,4.53
2022-11-17T01:34:35.199Z,5.00
2022-11-17T01:39:39.592Z,5.37
2022-11-17T01:44:54.776Z,3.90
2022-11-17T01:50:02.642Z,4.13
2022-11-17T01:55:08.510Z,5.17
2022-11-17T02:00:13.409Z,3.70
2022-11-17T02:05:31.407Z,3.90
2022-11-17T02:10:37.245Z,3.60
2022-11-17T02:15:40.462Z,3.30
2022-11-17T02:20:52.631Z,3.60
2022-11-17T02:26:21.301Z,3.77
2022-11-17T02:31:37.225Z,3.77
2022-11-17T02:36:47.386Z,3.53
2022-11-17T02:41:57.365Z,4.03
2022-11-17T02:47:05.495Z,3.10
2022-11-17T02:52:10.574Z,3.43
2022-11-17T02:57:28.721Z,2.80
2022-11-17T03:02:50.868Z,3.13
2022-11-17T03:08:07.545Z,2.97
2022-11-17T03:13:17.239Z,2.87
2022-11-17T03:18:28.389Z,3.00
2022-11-17T03:23:38.281Z,3.33
2022-11-17T03:28:44.882Z,2.57
2022-11-17T03:33:50.882Z,2.30
2022-11-17T03:39:01.424Z,2.70
2022-11-17T03:44:06.292Z,3.00
2022-11-17T03:49:21.938Z,2.93
2022-11-17T03:54:25.211Z,2.80
2022-11-17T03:59:35.005Z,2.60
2022-11-17T04:04:53.176Z,3.20
2022-11-17T04:09:56.108Z,3.17
2022-11-17T04:15:16.687Z,3.50
2022-11-17T04:20:21.198Z,3.40
2022-11-17T04:25:37.965Z,3.70
2022-11-17T04:30:40.870Z,3.33
2022-11-17T04:35:50.784Z,3.43
2022-11-17T04:41:11.483Z,4.20
2022-11-17T04:46:14.445Z,3.70
2022-11-17T04:51:18.833Z,4.00
2022-11-17T04:56:23.361Z,4.20
2022-11-17T05:01:27.673Z,4.30
2022-11-17T05:06:34.507Z,4.20
2022-11-17T05:11:55.079Z,4.77
2022-11-17T05:17:10.088Z,4.23
2022-11-17T05:22:34.828Z,4.30
2022-11-17T05:27:38.249Z,5.50
2022-11-17T05:32:41.177Z,5.27
2022-11-17T05:37:45.494Z,4.97
2022-11-17T05:42:51.749Z,5.63
2022-11-17T05:47:57.265Z,5.10
2022-11-17T05:53:01.555Z,5.57
2022-11-17T05:58:10.194Z,4.07
2022-11-17T06:03:17.629Z,5.00
2022-11-17T06:08:22.149Z,4.63
2022-11-17T06:13:28.948Z,5.17
2022-11-17T06:18:37.220Z,4.90
2022-11-17T06:23:41.618Z,5.33
2022-11-17T06:28:47.667Z,4.80
2022-11-17T06:33:50.829Z,4.83
2022-11-17T06:38:55.173Z,4.73
2022-11-17T06:43:58.076Z,4.43
2022-11-17T06:49:00.981Z,5.07
2022-11-17T06:54:07.392Z,4.80
2022-11-17T06:59:10.962Z,4.50
2022-11-17T07:04:14.078Z,4.43
2022-11-17T07:09:18.383Z,5.00
2022-11-17T07:14:21.265Z,4.30
2022-11-17T07:19:24.128Z,4.37
2022-11-17T07:24:28.405Z,4.20
2022-11-17T07:29:31.322Z,4.63
2022-11-17T07:34:34.269Z,4.10
2022-11-17T07:39:38.560Z,4.23
2022-11-17T07:44:41.443Z,3.77
2022-11-17T07:49:44.354Z,4.93
2022-11-17T07:54:48.648Z,4.40
2022-11-17T07:59:51.509Z,4.67
2022-11-17T08:04:54.386Z,4.70
2022-11-17T08:09:58.604Z,4.10
2022-11-17T08:15:01.649Z,4.40
2022-11-17T08:20:05.634Z,3.93
2022-11-17T08:25:10.748Z,4.27
2022-11-17T08:30:14.479Z,4.47
2022-11-17T08:35:17.591Z,4.97
2022-11-17T08:40:22.315Z,5.07
2022-11-17T08:45:25.234Z,6.43
2022-11-17T08:50:28.616Z,4.73
2022-11-17T08:55:36.812Z,5.60
2022-11-17T09:00:45.314Z,6.83
2022-11-17T09:05:48.404Z,5.70
2022-11-17T09:10:52.683Z,5.30
2022-11-17T09:15:55.884Z,5.17
2022-11-17T09:21:01.635Z,5.57
2022-11-17T09:26:08.289Z,5.13
2022-11-17T09:31:13.102Z,5.93
2022-11-17T09:36:17.651Z,5.90
2022-11-17T09:41:27.316Z,4.50
2022-11-17T09:46:42.272Z,5.13
2022-11-17T09:51:48.336Z,6.30
2022-11-17T09:56:52.774Z,5.20
2022-11-17T10:01:55.841Z,5.00
2022-11-17T10:06:59.673Z,6.20
2022-11-17T10:12:17.277Z,5.27
2022-11-17T10:17:20.129Z,5.20
2022-11-17T10:22:35.028Z,4.90
2022-11-17T10:27:50.483Z,5.03
2022-11-17T10:32:55.277Z,5.03
2022-11-17T10:38:00.561Z,4.63
2022-11-17T10:43:19.507Z,4.00
2022-11-17T10:48:28.717Z,4.50
2022-11-17T10:53:43.442Z,4.70
2022-11-17T10:59:03.126Z,4.60
2022-11-17T11:04:08.829Z,4.73
2022-11-17T11:09:17.890Z,4.87
2022-11-17T11:14:32.689Z,4.17
2022-11-17T11:19:35.886Z,4.50
2022-11-17T11:24:46.199Z,5.30
2022-11-17T11:30:01.597Z,5.70
2022-11-17T11:35:42.755Z,5.30
2022-11-17T11:40:59.937Z,5.60
2022-11-17T11:46:14.911Z,5.40
2022-11-17T11:51:22.410Z,5.30
2022-11-17T11:56:32.980Z,5.40
2022-11-17T12:01:47.318Z,6.13
2022-11-17T12:06:57.167Z,6.50
2022-11-17T12:12:01.598Z,5.77
2022-11-17T12:17:08.775Z,6.23
2022-11-17T12:22:15.163Z,6.20
2022-11-17T12:27:43.951Z,5.20
2022-11-17T12:32:55.444Z,5.33
2022-11-17T12:38:35.527Z,5.87
2022-11-17T12:43:38.385Z,5.67
2022-11-17T12:48:51.493Z,5.40
2022-11-17T12:54:04.570Z,4.90
2022-11-17T12:59:26.138Z,5.17
2022-11-17T13:04:37.699Z,4.33
2022-11-17T13:09:40.586Z,4.63
2022-11-17T13:14:54.290Z,4.87
2022-11-17T13:20:06.485Z,5.20
2022-11-17T13:25:23.223Z,4.60
2022-11-17T13:30:28.705Z,4.43
2022-11-17T13:35:35.014Z,4.20
2022-11-17T13:40:39.248Z,3.43
2022-11-17T13:45:45.131Z,3.97
2022-11-17T13:50:49.676Z,4.90
2022-11-17T13:55:53.668Z,6.30
2022-11-17T14:00:58.930Z,5.53
2022-11-17T14:06:04.987Z,5.27
2022-11-17T14:11:22.330Z,5.37
2022-11-17T14:16:28.470Z,5.37
2022-11-17T14:21:34.133Z,5.10
2022-11-17T14:26:42.885Z,5.30
2022-11-17T14:31:45.881Z,6.00
2022-11-17T14:36:53.640Z,6.13
2022-11-17T14:41:57.906Z,6.50
2022-11-17T14:47:00.807Z,5.27
2022-11-17T14:52:05.400Z,5.33
2022-11-17T14:57:08.330Z,6.00
2022-11-17T15:02:12.139Z,5.07
2022-11-17T15:07:16.478Z,6.13
2022-11-17T15:12:19.400Z,5.63
2022-11-17T15:17:22.346Z,6.43
2022-11-17T15:22:26.550Z,6.10
2022-11-17T15:27:29.431Z,6.53
2022-11-17T15:32:32.326Z,7.23
2022-11-17T15:37:36.614Z,8.57
2022-11-17T15:42:39.508Z,6.60
2022-11-17T15:47:42.539Z,7.70
2022-11-17T15:53:03.397Z,6.70
2022-11-17T15:58:07.340Z,11.97
2022-11-17T16:03:10.221Z,6.60
2022-11-17T16:08:14.474Z,8.33
2022-11-17T16:13:17.380Z,7.50
2022-11-17T16:18:20.543Z,7.50
2022-11-17T16:23:24.795Z,7.07
2022-11-17T16:28:27.686Z,6.97
2022-11-17T16:33:30.584Z,6.67
2022-11-17T16:38:35.237Z,7.60
2022-11-17T16:43:44.340Z,7.20
2022-11-17T16:48:49.022Z,7.03
2022-11-17T16:53:58.691Z,8.60
2022-11-17T16:59:01.742Z,7.73
2022-11-17T17:04:06.857Z,6.80
2022-11-17T17:09:12.825Z,7.27
2022-11-17T17:14:16.392Z,7.07
2022-11-17T17:19:19.440Z,7.90
2022-11-17T17:24:23.959Z,6.30
2022-11-17T17:29:26.864Z,8.13
2022-11-17T17:34:29.830Z,7.57
2022-11-17T17:39:34.435Z,8.03
2022-11-17T17:44:37.389Z,6.87
2022-11-17T17:49:40.392Z,7.60
2022-11-17T17:54:44.893Z,7.27
2022-11-17T17:59:47.841Z,7.30
2022-11-17T18:04:50.748Z,7.40
2022-11-17T18:09:55.281Z,7.67
2022-11-17T18:14:59.205Z,8.20
2022-11-17T18:20:02.584Z,8.43
2022-11-17T18:25:10.561Z,7.07
2022-11-17T18:30:15.703Z,7.40
2022-11-17T18:35:18.818Z,6.90
2022-11-17T18:40:23.335Z,6.97
2022-11-17T18:45:26.562Z,5.67
2022-11-17T18:50:29.444Z,6.20
2022-11-17T18:55:33.711Z,6.23
2022-11-17T19:00:36.770Z,7.70
2022-11-17T19:05:40.054Z,7.00
2022-11-17T19:10:52.655Z,6.90
2022-11-17T19:16:05.990Z,6.50
2022-11-17T19:21:10.573Z,7.17
2022-11-17T19:26:16.536Z,7.77
2022-11-17T19:31:20.945Z,11.93
2022-11-17T19:36:25.643Z,10.00
2022-11-17T19:41:31.986Z,8.07
2022-11-17T19:46:36.589Z,7.90
2022-11-17T19:51:39.868Z,8.40
2022-11-17T19:56:44.177Z,7.80
2022-11-17T20:01:47.134Z,7.73
2022-11-17T20:06:50.313Z,7.90
2022-11-17T20:11:54.553Z,7.80
2022-11-17T20:16:57.476Z,8.60
2022-11-17T20:22:00.371Z,8.17
2022-11-17T20:27:04.698Z,8.37
2022-11-17T20:32:07.545Z,8.50
2022-11-17T20:37:10.449Z,8.77
2022-11-17T20:42:17.386Z,8.60
2022-11-17T20:47:20.277Z,8.57
2022-11-17T20:52:23.343Z,9.70
2022-11-17T20:57:27.646Z,9.40
2022-11-17T21:02:30.515Z,9.63
2022-11-17T21:07:33.538Z,9.37
2022-11-17T21:12:37.852Z,9.17
2022-11-17T21:17:58.385Z,9.40
2022-11-17T21:23:01.330Z,9.13
2022-11-17T21:28:05.863Z,10.57
2022-11-17T21:33:08.826Z,9.77
2022-11-17T21:38:11.804Z,10.00
2022-11-17T21:43:16.061Z,10.43
2022-11-17T21:48:18.970Z,11.07
2022-11-17T21:53:21.986Z,10.83
2022-11-17T21:58:26.260Z,11.77
2022-11-17T22:03:29.215Z,10.53
2022-11-17T22:08:32.090Z,11.23
2022-11-17T22:13:37.797Z,11.50
2022-11-17T22:18:41.464Z,10.77
2022-11-17T22:23:44.339Z,12.47
2022-11-17T22:28:51.512Z,11.87
2022-11-17T22:33:54.464Z,12.10
2022-11-17T22:38:57.375Z,11.87
2022-11-17T22:44:01.619Z,13.33
2022-11-17T22:49:04.562Z,11.73
2022-11-17T22:54:08.547Z,11.90
2022-11-17T22:59:12.818Z,12.10
2022-11-17T23:04:16.406Z,11.13
2022-11-17T23:09:19.408Z,11.23
2022-11-17T23:14:23.816Z,12.40
2022-11-17T23:19:26.667Z,10.67
2022-11-17T23:24:29.532Z,11.93
2022-11-17T23:29:33.787Z,11.40
2022-11-17T23:34:36.668Z,15.53
2022-11-17T23:39:39.674Z,11.20
2022-11-17T23:44:43.909Z,11.30
2022-11-17T23:49:46.817Z,10.77
2022-11-17T23:54:49.660Z,15.37
2022-11-17T23:59:53.856Z,14.00
